createdAt,value
2022-10-12T00:00:46.731Z,14.00
2022-10-12T00:03:52.037Z,14.15
2022-10-12T00:06:59.760Z,14.88
2022-10-12T00:10:04.988Z,15.30
2022-10-12T00:13:10.259Z,14.57
2022-10-12T00:16:16.004Z,15.07
2022-10-12T00:19:21.097Z,14.88
2022-10-12T00:22:28.598Z,14.30
2022-10-12T00:25:33.591Z,14.13
2022-10-12T00:28:38.551Z,14.55
2022-10-12T00:31:43.570Z,15.20
2022-10-12T00:34:48.832Z,16.02
2022-10-12T00:37:59.646Z,16.05
2022-10-12T00:41:04.524Z,14.38
2022-10-12T00:44:24.286Z,14.52
2022-10-12T00:47:31.013Z,15.07
2022-10-12T00:50:38.015Z,13.50
2022-10-12T00:53:48.511Z,14.38
2022-10-12T00:56:55.134Z,15.98
2022-10-12T01:00:02.256Z,14.95
2022-10-12T01:03:10.054Z,15.43
2022-10-12T01:06:15.218Z,14.93
2022-10-12T01:09:23.981Z,14.35
2022-10-12T01:12:29.809Z,16.23
2022-10-12T01:15:37.847Z,16.13
2022-10-12T01:18:45.731Z,15.20
2022-10-12T01:21:54.406Z,14.95
2022-10-12T01:25:08.333Z,15.13
2022-10-12T01:28:20.054Z,14.05
2022-10-12T01:31:32.793Z,14.75
2022-10-12T01:34:42.090Z,14.80
2022-10-12T01:37:50.688Z,14.00
2022-10-12T01:44:00.315Z,14.18
2022-10-12T01:47:07.950Z,13.80
2022-10-12T01:50:14.825Z,14.88
2022-10-12T01:53:24.093Z,15.45
2022-10-12T01:56:31.758Z,15.32
2022-10-12T01:59:45.548Z,15.82
2022-10-12T02:02:57.930Z,14.90
2022-10-12T02:06:05.359Z,15.27
2022-10-12T02:09:14.181Z,15.05
2022-10-12T02:12:20.777Z,15.73
2022-10-12T02:15:27.502Z,14.48
2022-10-12T02:18:36.261Z,14.60
2022-10-12T02:21:41.823Z,14.75
2022-10-12T02:24:48.952Z,14.38
2022-10-12T02:27:56.620Z,13.55
2022-10-12T02:31:04.738Z,15.40
2022-10-12T02:34:14.384Z,13.98
2022-10-12T02:37:23.302Z,15.35
2022-10-12T02:40:33.531Z,13.32
2022-10-12T02:43:40.977Z,13.13
2022-10-12T02:46:46.628Z,14.43
2022-10-12T02:49:55.089Z,14.85
2022-10-12T02:53:00.610Z,14.23
2022-10-12T02:56:07.478Z,14.93
2022-10-12T02:59:12.576Z,14.75
2022-10-12T03:02:17.785Z,14.13
2022-10-12T03:05:25.327Z,14.13
2022-10-12T03:08:30.590Z,15.07
2022-10-12T03:11:35.647Z,13.82
2022-10-12T03:14:40.688Z,13.35
2022-10-12T03:17:45.880Z,15.50
2022-10-12T03:20:53.636Z,13.60
2022-10-12T03:23:58.712Z,13.20
2022-10-12T03:27:03.955Z,13.60
2022-10-12T03:30:11.777Z,13.95
2022-10-12T03:33:16.861Z,13.50
2022-10-12T03:36:24.596Z,14.68
2022-10-12T03:39:29.766Z,15.20
2022-10-12T03:42:34.813Z,13.00
2022-10-12T03:45:40.221Z,14.02
2022-10-12T03:48:45.307Z,14.20
2022-10-12T03:51:53.293Z,14.10
2022-10-12T03:54:58.582Z,14.93
2022-10-12T03:58:03.685Z,12.80
2022-10-12T04:01:09.122Z,14.98
2022-10-12T04:04:14.404Z,15.07
2022-10-12T04:07:22.215Z,14.45
2022-10-12T04:10:27.213Z,14.50
2022-10-12T04:13:32.400Z,15.10
2022-10-12T04:16:37.545Z,14.30
2022-10-12T04:19:42.690Z,14.57
2022-10-12T04:22:50.550Z,16.23
2022-10-12T04:25:55.522Z,16.20
2022-10-12T04:29:00.509Z,15.25
2022-10-12T04:32:10.081Z,15.30
2022-10-12T04:35:17.620Z,16.95
2022-10-12T04:38:25.319Z,15.63
2022-10-12T04:41:30.526Z,16.00
2022-10-12T04:44:35.775Z,16.33
2022-10-12T04:47:40.925Z,16.35
2022-10-12T04:50:46.203Z,15.70
2022-10-12T04:53:54.186Z,15.35
2022-10-12T04:56:59.261Z,16.95
2022-10-12T05:00:04.244Z,15.90
2022-10-12T05:03:09.420Z,15.00
2022-10-12T05:06:14.745Z,15.70
2022-10-12T05:09:22.452Z,15.38
2022-10-12T05:12:27.697Z,15.03
2022-10-12T05:15:32.884Z,16.17
2022-10-12T05:18:38.015Z,15.02
2022-10-12T05:21:43.262Z,14.68
2022-10-12T05:24:53.794Z,15.13
2022-10-12T05:27:59.253Z,14.68
2022-10-12T05:31:04.652Z,15.93
2022-10-12T05:34:09.739Z,15.07
2022-10-12T05:37:14.785Z,13.85
2022-10-12T05:40:22.447Z,16.40
2022-10-12T05:43:27.598Z,16.10
2022-10-12T05:46:32.606Z,15.68
2022-10-12T05:49:37.910Z,15.20
2022-10-12T05:52:42.976Z,13.98
2022-10-12T05:55:57.147Z,14.25
2022-10-12T05:59:02.309Z,13.77
2022-10-12T06:02:07.299Z,14.52
2022-10-12T06:05:12.490Z,14.05
2022-10-12T06:08:17.629Z,14.43
2022-10-12T06:11:25.329Z,12.43
2022-10-12T06:14:30.574Z,14.63
2022-10-12T06:17:35.609Z,13.40
2022-10-12T06:20:40.736Z,11.95
2022-10-12T06:23:45.812Z,13.55
2022-10-12T06:26:53.605Z,12.48
2022-10-12T06:29:58.635Z,12.30
2022-10-12T06:33:03.824Z,14.75
2022-10-12T06:36:09.248Z,11.75
2022-10-12T06:39:14.425Z,10.27
2022-10-12T06:42:21.985Z,9.25
2022-10-12T06:45:31.585Z,9.35
2022-10-12T06:48:36.651Z,9.18
2022-10-12T06:51:41.720Z,9.57
2022-10-12T06:54:46.667Z,9.85
2022-10-12T06:57:54.384Z,9.48
2022-10-12T07:00:59.420Z,9.53
2022-10-12T07:04:04.633Z,8.93
2022-10-12T07:07:09.618Z,7.70
2022-10-12T07:10:14.870Z,8.60
2022-10-12T07:13:22.751Z,8.40
2022-10-12T07:16:27.852Z,8.40
2022-10-12T07:19:33.062Z,8.15
2022-10-12T07:22:38.175Z,8.45
2022-10-12T07:25:43.079Z,8.38
2022-10-12T07:28:50.701Z,7.20
2022-10-12T07:31:55.773Z,9.45
2022-10-12T07:35:00.952Z,7.13
2022-10-12T07:38:06.294Z,7.93
2022-10-12T07:41:11.765Z,7.90
2022-10-12T07:44:19.986Z,8.40
2022-10-12T07:47:24.953Z,8.27
2022-10-12T07:50:30.072Z,7.55
2022-10-12T07:53:36.288Z,8.32
2022-10-12T07:56:41.883Z,7.45
2022-10-12T07:59:49.576Z,8.32
2022-10-12T08:02:54.782Z,8.60
2022-10-12T08:05:59.730Z,11.10
2022-10-12T08:09:05.091Z,10.15
2022-10-12T08:12:10.437Z,10.63
2022-10-12T08:15:18.670Z,12.13
2022-10-12T08:18:23.638Z,11.73
2022-10-12T08:21:28.719Z,12.05
2022-10-12T08:24:33.611Z,11.15
2022-10-12T08:27:39.267Z,14.90
2022-10-12T08:30:47.078Z,11.32
2022-10-12T08:33:51.986Z,12.10
2022-10-12T08:36:56.943Z,12.25
2022-10-12T08:40:03.560Z,11.77
2022-10-12T08:43:11.966Z,11.48
2022-10-12T08:46:21.865Z,10.68
2022-10-12T08:49:28.117Z,11.40
2022-10-12T08:52:35.050Z,10.77
2022-10-12T08:55:44.052Z,11.30
2022-10-12T08:58:50.518Z,10.05
2022-10-12T09:02:08.148Z,10.75
2022-10-12T09:05:15.339Z,10.03
2022-10-12T09:08:26.076Z,10.15
2022-10-12T09:11:39.294Z,10.82
2022-10-12T09:14:45.085Z,10.00
2022-10-12T09:17:54.057Z,9.95
2022-10-12T09:21:00.142Z,9.00
2022-10-12T09:24:06.651Z,9.75
2022-10-12T09:27:16.144Z,10.00
2022-10-12T09:30:21.943Z,9.23
2022-10-12T09:33:31.472Z,9.40
2022-10-12T09:36:38.304Z,10.35
2022-10-12T09:39:43.296Z,9.35
2022-10-12T09:42:48.977Z,9.43
2022-10-12T09:45:54.294Z,10.13
2022-10-12T09:49:02.587Z,10.68
2022-10-12T09:52:07.601Z,11.43
2022-10-12T09:58:33.003Z,9.00
2022-10-12T10:01:39.491Z,9.57
2022-10-12T10:04:48.099Z,7.60
2022-10-12T10:10:58.802Z,7.85
2022-10-12T10:14:04.544Z,7.78
2022-10-12T10:17:09.706Z,9.95
2022-10-12T10:20:25.500Z,8.57
2022-10-12T10:23:31.612Z,9.15
2022-10-12T10:26:51.437Z,9.15
2022-10-12T10:30:28.611Z,8.70
2022-10-12T10:33:36.343Z,8.13
2022-10-12T10:36:48.497Z,5.80
2022-10-12T10:39:55.218Z,6.35
2022-10-12T10:43:00.957Z,4.80
2022-10-12T10:46:06.325Z,4.53
2022-10-12T10:49:12.972Z,4.70
2022-10-12T10:52:25.525Z,4.97
2022-10-12T10:55:34.906Z,4.70
2022-10-12T10:58:41.501Z,4.60
2022-10-12T11:01:52.051Z,4.13
2022-10-12T11:05:00.231Z,4.60
2022-10-12T11:08:09.417Z,5.00
2022-10-12T11:11:23.553Z,4.88
2022-10-12T11:14:30.762Z,4.53
2022-10-12T11:17:36.362Z,6.55
2022-10-12T11:20:45.096Z,4.78
2022-10-12T11:23:54.713Z,4.80
2022-10-12T11:27:03.710Z,6.28
2022-10-12T11:30:15.760Z,5.45
2022-10-12T11:33:24.264Z,5.78
2022-10-12T11:39:39.539Z,5.60
2022-10-12T11:42:45.017Z,5.72
2022-10-12T11:45:51.985Z,4.60
2022-10-12T11:48:59.522Z,3.78
2022-10-12T11:52:07.101Z,3.60
2022-10-12T11:55:33.747Z,4.43
2022-10-12T11:58:59.920Z,3.63
2022-10-12T12:02:09.070Z,3.75
2022-10-12T12:05:18.214Z,4.30
2022-10-12T12:08:26.738Z,3.85
2022-10-12T12:14:51.305Z,3.67
2022-10-12T12:18:16.549Z,3.20
2022-10-12T12:21:21.863Z,4.32
2022-10-12T12:24:26.955Z,3.78
2022-10-12T12:27:34.760Z,4.00
2022-10-12T12:30:40.828Z,3.73
2022-10-12T12:33:52.206Z,3.92
2022-10-12T12:36:58.854Z,3.58
2022-10-12T12:40:04.042Z,3.90
2022-10-12T12:43:38.095Z,4.53
2022-10-12T12:50:41.893Z,3.92
2022-10-12T12:53:49.290Z,4.15
2022-10-12T12:57:09.033Z,4.32
2022-10-12T13:00:16.508Z,5.15
2022-10-12T13:03:36.743Z,5.63
2022-10-12T13:06:56.754Z,5.10
2022-10-12T13:10:09.816Z,5.15
2022-10-12T13:13:26.963Z,4.97
2022-10-12T13:20:14.470Z,5.85
2022-10-12T13:23:21.642Z,5.57
2022-10-12T13:26:32.663Z,5.95
2022-10-12T13:29:39.908Z,7.85
2022-10-12T13:32:47.840Z,5.80
2022-10-12T13:35:57.292Z,7.00
2022-10-12T13:39:03.445Z,6.03
2022-10-12T13:42:12.945Z,6.53
2022-10-12T13:45:19.318Z,7.13
2022-10-12T13:48:40.223Z,6.85
2022-10-12T13:51:51.278Z,6.75
2022-10-12T13:54:56.352Z,6.72
2022-10-12T13:58:04.191Z,5.70
2022-10-12T14:01:09.300Z,5.30
2022-10-12T14:04:14.715Z,5.05
2022-10-12T14:07:22.775Z,5.20
2022-10-12T14:10:29.974Z,5.40
2022-10-12T14:13:38.289Z,5.47
2022-10-12T14:16:43.363Z,6.32
2022-10-12T14:19:50.016Z,6.18
2022-10-12T14:22:55.007Z,5.70
2022-10-12T14:26:00.271Z,6.90
2022-10-12T14:29:27.951Z,6.32
2022-10-12T14:32:44.449Z,6.30
2022-10-12T14:35:51.340Z,5.40
2022-10-12T14:39:00.308Z,6.28
2022-10-12T14:42:07.483Z,6.57
2022-10-12T14:45:25.653Z,6.25
2022-10-12T14:48:33.425Z,6.07
2022-10-12T14:51:38.338Z,6.10
2022-10-12T14:54:43.542Z,6.70
2022-10-12T14:57:49.215Z,7.35
2022-10-12T15:00:54.393Z,6.68
2022-10-12T15:04:02.098Z,7.05
2022-10-12T15:07:08.698Z,6.53
2022-10-12T15:10:14.029Z,8.02
2022-10-12T15:13:19.418Z,8.38
2022-10-12T15:16:25.617Z,7.50
2022-10-12T15:19:33.419Z,7.47
2022-10-12T15:22:39.072Z,6.53
2022-10-12T15:25:46.952Z,7.68
2022-10-12T15:28:52.021Z,6.75
2022-10-12T15:31:58.549Z,6.70
2022-10-12T15:35:12.731Z,7.40
2022-10-12T15:38:17.924Z,7.05
2022-10-12T15:41:24.223Z,6.72
2022-10-12T15:44:29.709Z,7.10
2022-10-12T15:47:34.641Z,6.70
2022-10-12T15:50:42.960Z,7.72
2022-10-12T15:53:48.187Z,7.60
2022-10-12T15:56:53.162Z,8.50
2022-10-12T15:59:58.182Z,7.07
2022-10-12T16:03:04.307Z,7.40
2022-10-12T16:06:13.209Z,7.63
2022-10-12T16:09:18.473Z,7.20
2022-10-12T16:12:23.414Z,7.20
2022-10-12T16:15:29.697Z,7.25
2022-10-12T16:18:34.938Z,6.50
2022-10-12T16:21:42.478Z,8.00
2022-10-12T16:24:47.556Z,9.60
2022-10-12T16:27:53.061Z,8.65
2022-10-12T16:30:58.002Z,7.18
2022-10-12T16:34:03.038Z,7.13
2022-10-12T16:37:10.599Z,7.68
2022-10-12T16:40:16.428Z,8.33
2022-10-12T16:43:21.446Z,8.65
2022-10-12T16:46:26.817Z,8.68
2022-10-12T16:49:31.930Z,8.35
2022-10-12T16:52:39.575Z,8.88
2022-10-12T16:55:44.664Z,9.25
2022-10-12T16:58:49.887Z,9.00
2022-10-12T17:01:55.063Z,9.60
2022-10-12T17:05:00.203Z,10.48
2022-10-12T17:08:12.526Z,9.32
2022-10-12T17:11:21.455Z,10.25
2022-10-12T17:14:26.457Z,10.00
2022-10-12T17:17:31.743Z,9.60
2022-10-12T17:20:36.980Z,10.93
2022-10-12T17:23:44.570Z,10.10
2022-10-12T17:26:50.354Z,10.50
2022-10-12T17:29:55.299Z,10.68
2022-10-12T17:33:00.430Z,10.25
2022-10-12T17:36:08.188Z,10.27
2022-10-12T17:39:19.468Z,10.15
2022-10-12T17:42:25.243Z,10.05
2022-10-12T17:45:30.345Z,10.13
2022-10-12T17:48:35.571Z,9.88
2022-10-12T17:51:40.562Z,10.30
2022-10-12T17:54:48.380Z,10.35
2022-10-12T17:57:53.745Z,10.00
2022-10-12T18:00:58.984Z,10.52
2022-10-12T18:04:04.712Z,9.10
2022-10-12T18:07:10.045Z,9.88
2022-10-12T18:10:17.653Z,10.05
2022-10-12T18:13:22.770Z,11.27
2022-10-12T18:16:29.571Z,9.88
2022-10-12T18:19:34.735Z,10.80
2022-10-12T18:22:40.023Z,11.63
2022-10-12T18:25:48.598Z,9.35
2022-10-12T18:31:58.770Z,10.40
2022-10-12T18:35:04.127Z,9.77
2022-10-12T18:38:10.048Z,9.10
2022-10-12T18:41:19.087Z,10.23
2022-10-12T18:44:24.413Z,10.82
2022-10-12T18:47:29.368Z,10.73
2022-10-12T18:50:34.266Z,10.77
2022-10-12T18:53:39.351Z,10.77
2022-10-12T18:56:47.118Z,10.93
2022-10-12T18:59:52.893Z,11.60
2022-10-12T19:02:57.986Z,11.65
2022-10-12T19:06:06.977Z,9.95
2022-10-12T19:09:14.371Z,9.05
2022-10-12T19:12:22.135Z,9.82
2022-10-12T19:15:28.777Z,10.53
2022-10-12T19:18:33.801Z,10.25
2022-10-12T19:21:38.896Z,9.75
2022-10-12T19:24:44.340Z,9.65
2022-10-12T19:27:51.916Z,9.75
2022-10-12T19:30:57.020Z,8.90
2022-10-12T19:34:03.251Z,10.73
2022-10-12T19:37:08.369Z,8.88
2022-10-12T19:40:14.938Z,9.48
2022-10-12T19:43:22.535Z,9.48
2022-10-12T19:46:27.649Z,8.40
2022-10-12T19:49:36.767Z,10.60
2022-10-12T19:52:42.912Z,9.93
2022-10-12T19:55:49.017Z,9.18
2022-10-12T19:58:58.103Z,9.27
2022-10-12T20:02:03.402Z,8.88
2022-10-12T20:05:08.872Z,8.98
2022-10-12T20:08:13.802Z,8.05
2022-10-12T20:11:23.758Z,9.35
2022-10-12T20:14:32.733Z,9.00
2022-10-12T20:17:38.511Z,9.02
2022-10-12T20:20:44.293Z,8.63
2022-10-12T20:23:49.481Z,8.52
2022-10-12T20:26:54.551Z,9.88
2022-10-12T20:30:02.433Z,7.38
2022-10-12T20:33:08.705Z,8.02
2022-10-12T20:36:14.735Z,7.43
2022-10-12T20:39:19.888Z,6.68
2022-10-12T20:42:25.219Z,7.68
2022-10-12T20:45:33.083Z,6.72
2022-10-12T20:48:39.890Z,6.63
2022-10-12T20:51:45.033Z,6.13
2022-10-12T20:54:53.184Z,6.78
2022-10-12T20:57:58.401Z,6.80
2022-10-12T21:01:09.958Z,6.57
2022-10-12T21:04:15.157Z,6.28
2022-10-12T21:07:20.902Z,7.00
2022-10-12T21:10:26.282Z,7.28
2022-10-12T21:13:32.639Z,6.65
2022-10-12T21:16:40.429Z,6.85
2022-10-12T21:19:45.577Z,6.25
2022-10-12T21:22:50.854Z,6.50
2022-10-12T21:25:56.225Z,7.60
2022-10-12T21:29:01.585Z,6.55
2022-10-12T21:32:09.288Z,6.80
2022-10-12T21:35:14.642Z,7.97
2022-10-12T21:38:20.526Z,7.18
2022-10-12T21:41:26.673Z,6.53
2022-10-12T21:44:31.706Z,6.72
2022-10-12T21:47:39.254Z,7.13
2022-10-12T21:50:44.204Z,6.78
2022-10-12T21:53:49.821Z,7.25
2022-10-12T21:56:54.870Z,7.10
2022-10-12T22:00:01.290Z,6.68
2022-10-12T22:03:09.449Z,6.63
2022-10-12T22:06:17.979Z,7.53
2022-10-12T22:09:22.935Z,6.30
2022-10-12T22:12:28.180Z,7.00
2022-10-12T22:15:33.295Z,7.18
2022-10-12T22:18:50.664Z,7.57
2022-10-12T22:21:57.101Z,6.78
2022-10-12T22:25:05.599Z,7.18
2022-10-12T22:28:13.272Z,7.78
2022-10-12T22:31:21.146Z,7.32
2022-10-12T22:34:28.976Z,6.70
2022-10-12T22:37:34.026Z,6.97
2022-10-12T22:40:39.377Z,6.60
2022-10-12T22:43:44.335Z,7.55
2022-10-12T22:46:49.384Z,6.97
2022-10-12T22:49:57.041Z,7.43
2022-10-12T22:53:02.234Z,7.55
2022-10-12T22:56:08.893Z,7.72
2022-10-12T22:59:15.523Z,7.72
2022-10-12T23:02:21.143Z,6.68
2022-10-12T23:05:29.098Z,6.50
2022-10-12T23:08:34.306Z,7.03
2022-10-12T23:11:39.967Z,5.55
2022-10-12T23:14:45.568Z,3.83
2022-10-12T23:17:50.643Z,4.60
2022-10-12T23:20:58.329Z,4.55
2022-10-12T23:24:05.302Z,4.78
2022-10-12T23:27:10.306Z,4.70
2022-10-12T23:30:15.271Z,4.55
2022-10-12T23:33:20.297Z,4.15
2022-10-12T23:36:28.080Z,4.63
2022-10-12T23:39:33.156Z,3.88
2022-10-12T23:42:38.368Z,3.60
2022-10-12T23:45:45.726Z,3.28
2022-10-12T23:48:50.911Z,3.92
2022-10-12T23:51:58.562Z,3.35
2022-10-12T23:55:03.659Z,3.60
2022-10-12T23:58:09.144Z,3.72
